Time;durP1;ratioP1;P1;durP2;ratioP2;P2;SDS_P1;SDS_P2;PMS_P1;PMS_P2;Temp;Humidity;BMP_temperature;BMP_pressure;BME280_temperature;BME280_humidity;BME280_pressure;Samples;Min_cycle;Max_cycle;Signal;HPM_P1;HPM_P2
2023/03/06 00:00:30;;;;;;;23.80;13.20;;;;;;;3.17;57.65;94658.63;5010424;28;20535;-82
2023/03/06 00:02:56;;;;;;;24.40;13.70;;;;;;;2.63;58.01;94577.13;5010859;28;20038;-82
2023/03/06 00:05:22;;;;;;;31.45;14.43;;;;;;;3.28;57.65;94660.38;5025595;28;20125;-83
2023/03/06 00:07:48;;;;;;;28.42;14.25;;;;;;;2.64;57.46;94574.28;5009657;28;20204;-82
2023/03/06 00:10:19;;;;;;;32.47;14.30;;;;;;;3.05;57.83;94635.16;5009513;28;20068;-82
2023/03/06 00:12:44;;;;;;;27.50;15.40;;;;;;;2.96;57.75;94610.38;5010934;28;20484;-82
2023/03/06 00:15:11;;;;;;;25.85;13.48;;;;;;;3.26;57.84;94654.56;5008990;28;20119;-82
2023/03/06 00:17:36;;;;;;;25.73;13.52;;;;;;;2.89;57.90;94605.31;5025641;28;20492;-82
2023/03/06 00:20:03;;;;;;;26.23;13.75;;;;;;;3.10;57.89;94617.66;5010883;28;20038;-82
2023/03/06 00:22:29;;;;;;;25.80;14.85;;;;;;;2.53;57.91;94548.19;5010529;28;21667;-82
2023/03/06 00:24:54;;;;;;;29.75;16.05;;;;;;;2.71;58.35;94593.25;5010627;28;20025;-82
2023/03/06 00:27:20;;;;;;;27.55;14.02;;;;;;;2.93;58.21;94631.81;5010447;28;20037;-83
2023/03/06 00:29:48;;;;;;;42.05;15.02;;;;;;;2.85;58.30;94606.00;5025817;28;20037;-82
2023/03/06 00:32:14;;;;;;;29.13;14.20;;;;;;;2.24;57.83;94529.94;5009436;28;20452;-82
2023/03/06 00:34:39;;;;;;;28.08;13.43;;;;;;;2.73;58.44;94593.00;5025583;28;20484;-82
2023/03/06 00:37:05;;;;;;;28.98;14.57;;;;;;;2.94;58.13;94612.44;5010307;28;20040;-82
2023/03/06 00:39:30;;;;;;;28.73;14.10;;;;;;;2.23;57.65;94502.19;5011243;28;20037;-82
2023/03/06 00:41:55;;;;;;;42.70;15.15;;;;;;;2.85;57.79;94571.97;5014320;28;20057;-83
2023/03/06 00:44:21;;;;;;;29.58;14.43;;;;;;;2.96;57.74;94594.66;5012857;28;20041;-82
2023/03/06 00:46:46;;;;;;;36.58;15.32;;;;;;;3.00;57.53;94611.47;5014369;28;20030;-82
2023/03/06 00:49:12;;;;;;;27.95;13.15;;;;;;;3.13;57.42;94619.00;5014188;28;20042;-82
2023/03/06 00:51:37;;;;;;;33.35;14.85;;;;;;;2.66;57.39;94550.50;5014193;28;20062;-82
2023/03/06 00:54:02;;;;;;;32.35;14.73;;;;;;;3.08;57.31;94616.31;5014459;28;20038;-82
2023/03/06 00:56:28;;;;;;;31.25;13.88;;;;;;;3.27;56.94;94648.31;5014094;28;20038;-82
2023/03/06 00:58:54;;;;;;;31.13;14.55;;;;;;;3.35;57.37;94632.16;5028937;28;20471;-82
2023/03/06 01:01:20;;;;;;;26.70;13.80;;;;;;;3.35;57.26;94655.75;5014045;28;20033;-82
2023/03/06 01:03:45;;;;;;;24.92;14.68;;;;;;;3.26;57.37;94633.59;5012375;28;20038;-82
2023/03/06 01:06:11;;;;;;;33.58;15.27;;;;;;;3.17;57.39;94603.59;5014240;28;20045;-82
2023/03/06 01:08:36;;;;;;;33.78;15.38;;;;;;;2.40;56.77;94488.31;5014101;28;20034;-84
2023/03/06 01:11:02;;;;;;;29.55;14.30;;;;;;;3.48;56.86;94637.06;5012365;28;20405;-83
2023/03/06 01:13:27;;;;;;;29.73;15.15;;;;;;;2.52;56.80;94486.38;5013802;28;20140;-82
2023/03/06 01:15:53;;;;;;;27.05;14.48;;;;;;;3.12;57.38;94585.19;5013580;28;20566;-83
2023/03/06 01:18:18;;;;;;;29.23;14.75;;;;;;;2.83;57.37;94532.13;5013987;28;20029;-82
2023/03/06 01:20:44;;;;;;;33.30;14.77;;;;;;;2.88;57.40;94545.31;5013281;28;20563;-82
2023/03/06 01:23:09;;;;;;;26.00;14.90;;;;;;;2.56;57.10;94514.47;5013468;28;20543;-82
2023/03/06 01:25:34;;;;;;;31.38;15.55;;;;;;;2.97;58.26;94573.47;5013638;28;20060;-82
2023/03/06 01:28:00;;;;;;;28.02;14.57;;;;;;;3.16;57.17;94610.66;5013751;28;20072;-82
2023/03/06 01:30:25;;;;;;;27.38;14.02;;;;;;;2.57;56.81;94525.75;5013996;28;20038;-82
2023/03/06 01:32:51;;;;;;;32.25;15.63;;;;;;;2.75;57.95;94541.19;5012078;28;20139;-82
2023/03/06 01:35:17;;;;;;;33.15;16.00;;;;;;;3.26;58.54;94626.53;5013130;28;20147;-82
2023/03/06 01:37:43;;;;;;;31.17;15.43;;;;;;;2.79;58.18;94539.69;5013608;28;20048;-82
2023/03/06 01:40:10;;;;;;;27.27;13.85;;;;;;;3.11;57.33;94600.13;5028573;28;20034;-82
2023/03/06 01:42:36;;;;;;;29.13;14.75;;;;;;;3.03;57.29;94561.25;5027873;28;20057;-82
2023/03/06 01:45:24;;;;;;;24.65;13.75;;;;;;;3.33;57.27;94629.78;5012297;28;20052;-82
2023/03/06 01:47:49;;;;;;;25.90;14.20;;;;;;;2.76;58.06;94534.91;5011082;28;20044;-82
2023/03/06 01:50:15;;;;;;;25.13;13.90;;;;;;;2.83;57.72;94539.97;5028354;28;20033;-82
2023/03/06 01:52:58;;;;;;;26.70;14.38;;;;;;;3.08;57.55;94593.53;5027039;28;20038;-83
2023/03/06 01:55:31;;;;;;;26.20;14.13;;;;;;;3.19;57.90;94606.78;5028084;28;20038;-82
2023/03/06 01:58:02;;;;;;;25.27;13.35;;;;;;;2.93;57.65;94550.59;5027742;28;20397;-81
2023/03/06 02:00:28;;;;;;;30.40;15.45;;;;;;;2.97;57.65;94573.47;5011482;28;20492;-82
2023/03/06 02:02:59;;;;;;;30.75;13.45;;;;;;;3.10;58.47;94574.94;5012922;28;20606;-82
2023/03/06 02:05:25;;;;;;;29.08;14.75;;;;;;;3.04;58.65;94581.97;5011538;28;20172;-82
2023/03/06 02:07:52;;;;;;;28.13;15.25;;;;;;;3.04;59.38;94600.28;5012991;28;20073;-82
2023/03/06 02:10:18;;;;;;;30.13;15.18;;;;;;;3.20;59.41;94626.72;5013034;28;20459;-82
2023/03/06 02:12:45;;;;;;;32.60;14.77;;;;;;;3.22;59.43;94632.47;5011103;28;20030;-82
2023/03/06 02:15:16;;;;;;;28.88;15.57;;;;;;;3.30;59.29;94630.25;5012723;28;20106;-82
2023/03/06 02:17:44;;;;;;;29.27;15.30;;;;;;;3.00;59.60;94604.41;5011445;28;20038;-82
2023/03/06 02:20:21;;;;;;;29.35;15.13;;;;;;;2.96;59.33;94589.44;5012533;28;20042;-82
2023/03/06 02:22:54;;;;;;;31.10;15.80;;;;;;;3.01;59.78;94600.75;5027636;28;20038;-83
2023/03/06 02:25:32;;;;;;;30.25;15.65;;;;;;;3.18;59.65;94626.16;5012191;28;20113;-82
2023/03/06 02:27:58;;;;;;;31.95;14.88;;;;;;;3.28;59.71;94628.94;5012677;28;20095;-81
2023/03/06 02:30:26;;;;;;;39.13;17.77;;;;;;;3.16;59.00;94613.28;5012448;28;20034;-81
2023/03/06 02:32:51;;;;;;;26.30;15.27;;;;;;;2.73;59.20;94540.66;5013588;28;20034;-81
2023/03/06 02:35:38;;;;;;;33.45;14.95;;;;;;;2.17;59.60;94489.28;5029122;28;20041;-81
2023/03/06 02:38:09;;;;;;;28.92;15.70;;;;;;;2.36;60.01;94532.50;5014129;28;20041;-81
2023/03/06 02:40:35;;;;;;;32.45;15.82;;;;;;;2.90;60.67;94643.53;5013830;28;20475;-80
2023/03/06 02:43:01;;;;;;;27.65;13.45;;;;;;;3.02;59.97;94646.09;5013923;28;20511;-80
2023/03/06 02:45:43;;;;;;;27.17;14.40;;;;;;;3.04;60.23;94652.69;5014081;28;20030;-80
2023/03/06 02:48:08;;;;;;;28.10;14.98;;;;;;;2.45;60.27;94566.91;5012248;28;20030;-80
2023/03/06 02:50:34;;;;;;;31.65;15.15;;;;;;;2.68;60.67;94616.47;5028968;28;20492;-80
2023/03/06 02:52:59;;;;;;;32.53;14.88;;;;;;;3.01;60.19;94645.28;5011848;28;20183;-80
2023/03/06 02:55:25;;;;;;;33.53;14.98;;;;;;;2.65;60.14;94582.94;5011771;28;20424;-80
2023/03/06 02:57:52;;;;;;;34.72;15.82;;;;;;;2.32;60.15;94534.00;5028719;28;20037;-80
2023/03/06 03:00:18;;;;;;;28.77;14.48;;;;;;;2.69;60.82;94612.84;5028742;28;20037;-80
2023/03/06 03:02:44;;;;;;;34.47;15.02;;;;;;;1.97;61.51;94528.19;5011968;28;20061;-80
2023/03/06 03:05:09;;;;;;;26.10;15.07;;;;;;;2.18;61.55;94538.75;5012983;28;20168;-80
2023/03/06 03:07:35;;;;;;;31.27;16.05;;;;;;;2.03;61.23;94543.72;5013600;28;20124;-80
2023/03/06 03:10:01;;;;;;;34.33;15.07;;;;;;;1.60;61.72;94492.00;5013770;28;20111;-80
2023/03/06 03:12:27;;;;;;;27.60;15.25;;;;;;;1.98;61.48;94548.88;5013809;28;20061;-80
2023/03/06 03:14:54;;;;;;;30.45;15.32;;;;;;;2.16;61.41;94561.72;5013430;28;20053;-80
2023/03/06 03:17:20;;;;;;;32.13;16.42;;;;;;;2.11;61.53;94566.09;5011570;28;20072;-80
2023/03/06 03:19:46;;;;;;;27.02;14.98;;;;;;;2.69;61.85;94644.25;5013201;28;20034;-80
2023/03/06 03:22:11;;;;;;;29.45;15.73;;;;;;;2.22;61.51;94570.44;5011620;28;20530;-81
2023/03/06 03:24:37;;;;;;;32.72;16.60;;;;;;;2.36;61.93;94599.75;5013501;28;20033;-81
2023/03/06 03:27:02;;;;;;;31.30;16.23;;;;;;;2.43;61.61;94592.53;5012384;28;20526;-80
2023/03/06 03:29:28;;;;;;;35.10;16.75;;;;;;;2.39;61.22;94579.13;5011055;28;20038;-80
2023/03/06 03:31:53;;;;;;;31.25;17.40;;;;;;;2.79;62.00;94656.72;5011604;28;20357;-80
2023/03/06 03:34:19;;;;;;;30.52;16.38;;;;;;;2.59;61.03;94604.84;5012175;28;20030;-80
2023/03/06 03:36:45;;;;;;;36.35;16.58;;;;;;;2.25;60.85;94534.16;5011281;28;20491;-80
2023/03/06 03:39:10;;;;;;;37.33;17.80;;;;;;;2.04;61.22;94511.31;5010874;28;20091;-80
2023/03/06 03:41:35;;;;;;;32.30;16.23;;;;;;;2.02;61.30;94534.28;5012595;28;20519;-80
2023/03/06 03:44:01;;;;;;;31.35;16.85;;;;;;;2.71;60.90;94616.81;5012534;28;20041;-80
2023/03/06 03:46:26;;;;;;;37.00;16.88;;;;;;;2.61;61.14;94593.06;5012582;28;20028;-81
2023/03/06 03:48:52;;;;;;;38.80;17.33;;;;;;;3.16;60.64;94662.28;5011549;28;20076;-80
2023/03/06 03:51:17;;;;;;;32.85;16.70;;;;;;;2.11;59.97;94485.78;5013782;28;20508;-80
2023/03/06 03:53:43;;;;;;;31.65;16.30;;;;;;;2.70;60.04;94575.94;5012165;28;20096;-80
2023/03/06 03:56:09;;;;;;;28.70;15.85;;;;;;;2.49;60.65;94587.13;5013738;28;20053;-81
2023/03/06 03:58:35;;;;;;;35.00;15.95;;;;;;;2.52;60.70;94567.53;5013691;28;20038;-81
2023/03/06 04:01:00;;;;;;;26.33;15.38;;;;;;;2.54;59.99;94600.31;5012544;28;20519;-80
2023/03/06 04:03:26;;;;;;;32.25;15.13;;;;;;;2.51;60.02;94600.78;5012753;28;20038;-81
2023/03/06 04:05:56;;;;;;;30.75;14.68;;;;;;;3.09;59.82;94678.16;5011256;28;20045;-80
2023/03/06 04:08:23;;;;;;;32.40;14.70;;;;;;;2.96;60.24;94675.88;5012645;28;20456;-80
2023/03/06 04:10:50;;;;;;;30.35;14.65;;;;;;;2.51;59.83;94594.75;5027850;28;20030;-80
2023/03/06 04:13:19;;;;;;;28.35;15.20;;;;;;;3.16;59.71;94683.25;5010894;28;20446;-80
2023/03/06 04:15:46;;;;;;;32.53;15.45;;;;;;;2.26;59.53;94511.41;5010468;28;20125;-81
2023/03/06 04:18:12;;;;;;;33.88;15.88;;;;;;;3.38;59.28;94681.47;5012599;28;20496;-80
2023/03/06 04:20:38;;;;;;;33.42;15.50;;;;;;;2.80;59.10;94585.00;5013128;28;20101;-80
2023/03/06 04:23:03;;;;;;;26.88;15.40;;;;;;;3.41;59.11;94684.41;5012966;28;20100;-80
2023/03/06 04:25:29;;;;;;;33.78;15.65;;;;;;;2.90;58.38;94585.91;5013313;28;20049;-80
2023/03/06 04:27:55;;;;;;;32.13;15.02;;;;;;;3.23;58.40;94636.69;5014063;28;20388;-81
2023/03/06 04:30:20;;;;;;;35.75;16.30;;;;;;;3.47;57.99;94664.31;5031353;28;20033;-80
2023/03/06 04:32:46;;;;;;;33.33;16.17;;;;;;;2.94;58.00;94570.53;5011793;28;20050;-80
2023/03/06 04:35:11;;;;;;;28.90;14.95;;;;;;;2.82;58.02;94554.94;5012779;28;20568;-80
2023/03/06 04:37:37;;;;;;;31.42;15.25;;;;;;;3.74;58.01;94688.78;5010844;28;20444;-81
2023/03/06 04:40:03;;;;;;;34.33;17.95;;;;;;;3.78;58.21;94687.28;5012257;28;20041;-81
2023/03/06 04:42:28;;;;;;;39.33;16.58;;;;;;;3.39;57.99;94623.56;5011689;28;20057;-80
2023/03/06 04:44:54;;;;;;;39.05;17.67;;;;;;;3.26;57.82;94605.56;5011868;28;20030;-80
2023/03/06 04:47:19;;;;;;;38.15;17.83;;;;;;;3.26;57.87;94604.78;5010102;28;20045;-81
2023/03/06 04:49:45;;;;;;;29.30;16.38;;;;;;;3.32;58.24;94596.75;5026942;28;20068;-80
2023/03/06 04:52:10;;;;;;;42.78;16.67;;;;;;;3.93;58.01;94691.91;5011448;28;20040;-81
2023/03/06 04:54:35;;;;;;;37.08;15.93;;;;;;;3.20;58.02;94608.38;5012127;28;20037;-81
2023/03/06 04:57:01;;;;;;;31.40;16.58;;;;;;;3.62;58.05;94661.88;5010509;28;20030;-81
2023/03/06 04:59:26;;;;;;;32.55;16.30;;;;;;;3.94;58.09;94692.72;5011828;28;20104;-81
2023/03/06 05:01:52;;;;;;;34.85;16.73;;;;;;;3.43;58.12;94616.78;5009917;28;20037;-80
2023/03/06 05:04:17;;;;;;;39.20;18.75;;;;;;;3.64;58.49;94638.84;5026041;28;20116;-80
2023/03/06 05:06:43;;;;;;;35.35;16.30;;;;;;;4.01;58.22;94695.94;5010632;28;20034;-81
2023/03/06 05:09:08;;;;;;;37.88;16.45;;;;;;;3.47;58.29;94611.88;5023818;28;20036;-81
2023/03/06 05:11:34;;;;;;;35.65;16.52;;;;;;;3.93;58.45;94673.56;5027401;28;20120;-81
2023/03/06 05:13:59;;;;;;;31.63;16.50;;;;;;;3.57;58.33;94609.38;5019172;28;20025;-81
2023/03/06 05:16:25;;;;;;;40.85;18.15;;;;;;;3.85;58.62;94681.84;5032747;28;20041;-81
2023/03/06 05:18:50;;;;;;;44.50;17.73;;;;;;;4.07;58.57;94702.84;5019676;28;20053;-81
2023/03/06 05:21:16;;;;;;;40.95;17.45;;;;;;;3.90;58.70;94679.28;5023464;28;20021;-82
2023/03/06 05:23:42;;;;;;;32.42;17.55;;;;;;;3.52;58.36;94622.41;5011463;28;20091;-82
2023/03/06 05:26:09;;;;;;;37.67;18.10;;;;;;;3.83;57.97;94666.34;5017598;28;20044;-81
2023/03/06 05:28:35;;;;;;;36.83;18.90;;;;;;;3.44;58.29;94602.66;5019938;28;20110;-81
2023/03/06 05:31:00;;;;;;;33.72;18.58;;;;;;;4.08;58.35;94702.59;5019316;28;20120;-81
2023/03/06 05:33:25;;;;;;;36.80;18.05;;;;;;;4.20;57.94;94699.84;5021652;28;20151;-81
2023/03/06 05:35:51;;;;;;;38.20;19.92;;;;;;;3.59;57.96;94606.50;5022632;28;20123;-81
2023/03/06 05:38:17;;;;;;;43.03;20.15;;;;;;;4.09;58.18;94679.78;5036911;28;20617;-82
2023/03/06 05:40:43;;;;;;;36.78;19.55;;;;;;;3.90;57.94;94639.94;5023351;28;20034;-81
2023/03/06 05:43:10;;;;;;;35.50;19.15;;;;;;;3.73;57.76;94641.84;5021984;28;20033;-81
2023/03/06 05:45:36;;;;;;;35.83;18.00;;;;;;;4.30;57.85;94714.91;5022647;28;20037;-81
2023/03/06 05:48:02;;;;;;;35.03;17.55;;;;;;;3.47;57.88;94581.22;5020744;28;20586;-81
2023/03/06 05:50:28;;;;;;;34.47;17.13;;;;;;;3.76;58.30;94634.25;5026066;28;20098;-81
2023/03/06 05:52:53;;;;;;;41.25;17.90;;;;;;;3.61;57.66;94607.06;5020210;28;20040;-81
2023/03/06 05:55:20;;;;;;;37.35;18.23;;;;;;;3.59;57.69;94604.66;5020622;28;20496;-80
2023/03/06 05:57:46;;;;;;;50.25;19.65;;;;;;;4.40;57.47;94722.91;5009181;28;20029;-78
2023/03/06 06:00:13;;;;;;;38.65;19.25;;;;;;;3.84;56.62;94627.78;5010663;28;20059;-78
2023/03/06 06:02:40;;;;;;;41.47;18.38;;;;;;;4.48;56.60;94722.47;5006576;28;20563;-77
2023/03/06 06:05:06;;;;;;;33.78;17.75;;;;;;;4.35;56.74;94728.13;5006479;28;20025;-78
2023/03/06 06:07:32;;;;;;;41.50;18.10;;;;;;;4.14;55.90;94679.81;5011282;28;20412;-78
2023/03/06 06:09:57;;;;;;;31.73;15.85;;;;;;;3.84;55.30;94636.47;5008205;28;20033;-79
2023/03/06 06:12:22;;;;;;;40.85;16.55;;;;;;;4.50;54.84;94728.28;5003269;28;20119;-79
2023/03/06 06:14:48;;;;;;;30.00;15.73;;;;;;;3.34;55.42;94593.88;5029124;28;20045;-82
2023/03/06 06:17:15;;;;;;;28.42;15.77;;;;;;;4.14;55.35;94737.56;5008329;28;20113;-81
2023/03/06 06:19:41;;;;;;;31.48;15.23;;;;;;;3.19;55.19;94599.72;5020706;28;20066;-82
2023/03/06 06:22:06;;;;;;;30.80;14.63;;;;;;;3.79;55.69;94714.28;5033707;28;20029;-81
2023/03/06 06:24:32;;;;;;;30.80;16.25;;;;;;;3.57;55.11;94647.91;5006772;28;20033;-81
2023/03/06 06:26:58;;;;;;;29.90;15.63;;;;;;;4.11;54.83;94743.31;5007090;28;20033;-80
2023/03/06 06:29:26;;;;;;;30.77;15.80;;;;;;;3.53;55.37;94670.41;5012176;28;20056;-81
2023/03/06 06:31:52;;;;;;;36.25;16.35;;;;;;;3.58;54.86;94662.63;5001606;28;20045;-79
2023/03/06 06:34:18;;;;;;;26.02;14.88;;;;;;;3.71;54.66;94667.50;5008416;28;20030;-80
2023/03/06 06:36:43;;;;;;;29.60;14.45;;;;;;;4.24;54.91;94746.38;5006874;28;20048;-82
2023/03/06 06:39:12;;;;;;;32.45;14.82;;;;;;;4.22;55.09;94748.44;5013969;28;20512;-81
2023/03/06 06:41:40;;;;;;;30.30;14.95;;;;;;;3.46;54.96;94636.50;5006240;28;20053;-82
2023/03/06 06:44:07;;;;;;;38.47;15.65;;;;;;;4.22;54.76;94753.69;5006590;28;20025;-82
2023/03/06 06:46:33;;;;;;;37.60;19.63;;;;;;;4.16;54.82;94754.66;5011171;28;20143;-80
2023/03/06 06:49:01;;;;;;;42.83;17.92;;;;;;;3.39;55.31;94662.88;5010417;28;20029;-81
2023/03/06 06:51:28;;;;;;;36.58;17.90;;;;;;;3.97;54.74;94715.84;5004430;28;20041;-81
2023/03/06 06:53:54;;;;;;;33.47;16.45;;;;;;;3.61;54.56;94673.41;5014121;28;20026;-81
2023/03/06 06:56:19;;;;;;;38.53;17.25;;;;;;;4.32;54.64;94765.34;5017027;28;20040;-80
2023/03/06 06:58:44;;;;;;;40.35;18.15;;;;;;;3.72;54.43;94672.50;5012876;28;20656;-80
2023/03/06 07:01:12;;;;;;;32.20;16.95;;;;;;;4.30;54.59;94755.09;5011753;28;20029;-81
2023/03/06 07:03:37;;;;;;;38.45;16.95;;;;;;;3.20;55.19;94590.81;5001678;28;20488;-76
2023/03/06 07:06:04;;;;;;;42.80;18.65;;;;;;;3.54;54.07;94637.91;5009154;28;20274;-78
2023/03/06 07:08:30;;;;;;;36.88;17.60;;;;;;;4.19;54.39;94727.94;5000127;28;20148;-77
2023/03/06 07:10:56;;;;;;;43.38;17.27;;;;;;;3.01;53.77;94537.91;5005363;28;20184;-82
2023/03/06 07:13:22;;;;;;;39.28;18.02;;;;;;;3.94;54.18;94658.59;5002633;28;20032;-81
2023/03/06 07:15:47;;;;;;;31.58;15.80;;;;;;;4.27;53.29;94698.59;5022156;28;20037;-80
2023/03/06 07:18:12;;;;;;;34.50;16.98;;;;;;;4.36;53.83;94730.47;5011221;28;20038;-80
2023/03/06 07:20:38;;;;;;;33.28;16.52;;;;;;;4.28;54.23;94704.66;5012486;28;20136;-80
2023/03/06 07:23:07;;;;;;;44.42;18.05;;;;;;;4.42;53.43;94729.53;5013108;28;20084;-80
2023/03/06 07:25:32;;;;;;;29.65;14.93;;;;;;;4.33;53.16;94714.44;5007572;28;20589;-80
2023/03/06 07:27:58;;;;;;;33.65;16.42;;;;;;;4.25;53.54;94758.47;5015343;28;20030;-80
2023/03/06 07:30:23;;;;;;;39.63;16.85;;;;;;;3.68;53.08;94642.53;5006499;28;20049;-80
2023/03/06 07:32:52;;;;;;;36.75;17.38;;;;;;;3.80;53.10;94672.09;5014192;28;20033;-81
2023/03/06 07:35:18;;;;;;;34.53;16.30;;;;;;;4.49;53.27;94772.13;5019572;28;20025;-81
2023/03/06 07:37:43;;;;;;;34.88;16.98;;;;;;;3.87;53.26;94677.94;5012161;28;20403;-82
2023/03/06 07:40:11;;;;;;;36.17;16.70;;;;;;;4.28;53.45;94710.69;5019897;28;20048;-81
2023/03/06 07:42:36;;;;;;;38.92;17.25;;;;;;;4.55;53.06;94767.72;5038272;28;20049;-80
2023/03/06 07:45:03;;;;;;;28.15;15.45;;;;;;;4.17;53.72;94732.63;5013507;28;20049;-82
2023/03/06 07:47:29;;;;;;;42.53;17.42;;;;;;;3.51;53.93;94644.41;5016872;28;20060;-82
2023/03/06 07:49:55;;;;;;;34.25;17.23;;;;;;;3.59;54.02;94646.63;5004770;28;20338;-79
2023/03/06 07:52:22;;;;;;;41.00;17.73;;;;;;;3.72;54.26;94685.63;5006453;28;20462;-81
2023/03/06 07:54:48;;;;;;;48.15;18.23;;;;;;;4.13;54.31;94736.75;5015369;28;20882;-83
2023/03/06 07:57:14;;;;;;;35.45;18.10;;;;;;;4.12;53.80;94710.78;5013889;28;20121;-84
2023/03/06 07:59:40;;;;;;;39.63;17.45;;;;;;;4.59;53.88;94777.47;5023361;28;20064;-85
2023/03/06 08:02:06;;;;;;;43.67;19.50;;;;;;;4.74;53.74;94770.81;5015637;28;20574;-82
2023/03/06 08:04:33;;;;;;;35.78;16.33;;;;;;;4.34;53.26;94713.41;5021123;28;20266;-88
2023/03/06 08:06:59;;;;;;;34.90;16.80;;;;;;;4.74;53.31;94773.44;5017928;28;20026;-82
2023/03/06 08:09:25;;;;;;;37.50;17.08;;;;;;;4.38;53.26;94699.53;5018433;28;20036;-82
2023/03/06 08:11:51;;;;;;;40.17;17.60;;;;;;;4.23;53.54;94683.63;5002410;28;20026;-82
2023/03/06 08:14:16;;;;;;;38.40;17.90;;;;;;;3.91;53.24;94638.09;5013153;28;20037;-81
2023/03/06 08:16:42;;;;;;;37.67;17.85;;;;;;;4.08;53.85;94663.25;5017508;28;20026;-82
2023/03/06 08:19:07;;;;;;;34.58;17.08;;;;;;;4.77;53.31;94772.94;5022869;28;20041;-80
2023/03/06 08:21:33;;;;;;;40.10;17.50;;;;;;;4.96;52.89;94772.34;5014378;28;20655;-81
2023/03/06 08:23:58;;;;;;;37.85;18.08;;;;;;;4.28;53.11;94684.44;5012304;28;20048;-82
2023/03/06 08:26:27;;;;;;;37.42;18.33;;;;;;;5.06;52.76;94763.78;5013267;28;20276;-82
2023/03/06 08:28:54;;;;;;;36.78;17.88;;;;;;;5.25;52.57;94767.66;5011081;28;20033;-82
2023/03/06 08:31:25;;;;;;;32.92;17.08;;;;;;;5.25;51.91;94767.66;5010862;28;20128;-81
2023/03/06 08:33:52;;;;;;;37.72;19.05;;;;;;;5.29;53.14;94770.56;5011549;28;20042;-81
2023/03/06 08:36:17;;;;;;;36.70;18.00;;;;;;;4.95;53.00;94709.56;5010159;28;20099;-81
2023/03/06 08:38:43;;;;;;;43.90;20.15;;;;;;;4.90;52.52;94668.25;5008793;28;20045;-82
2023/03/06 08:41:11;;;;;;;36.28;18.10;;;;;;;5.54;51.94;94762.09;5013191;28;20058;-81
2023/03/06 08:43:37;;;;;;;44.13;18.98;;;;;;;4.96;52.73;94675.13;4992914;28;20592;-82
2023/03/06 08:46:03;;;;;;;32.80;17.92;;;;;;;5.19;52.16;94687.13;5009354;28;20140;-81
2023/03/06 08:48:29;;;;;;;36.70;16.92;;;;;;;4.98;51.81;94635.47;5009371;28;20037;-81
2023/03/06 08:50:55;;;;;;;34.10;16.65;;;;;;;5.04;52.15;94637.09;5007113;28;20274;-82
2023/03/06 08:53:20;;;;;;;36.25;17.85;;;;;;;6.01;52.55;94768.25;5029357;28;20043;-79
2023/03/06 08:55:46;;;;;;;36.58;17.45;;;;;;;6.02;52.69;94755.88;5013858;28;20063;-80
2023/03/06 08:58:12;;;;;;;36.35;18.27;;;;;;;5.79;51.69;94713.09;5039652;28;20030;-82
2023/03/06 09:00:37;;;;;;;35.20;17.15;;;;;;;6.04;51.33;94756.38;5010655;28;20041;-77
2023/03/06 09:03:03;;;;;;;43.33;18.80;;;;;;;5.95;51.09;94763.19;5005124;28;20072;-76
2023/03/06 09:05:28;;;;;;;36.10;18.60;;;;;;;5.71;51.08;94726.72;5003315;28;20040;-78
2023/03/06 09:07:54;;;;;;;48.05;18.55;;;;;;;6.06;51.20;94752.47;5010885;28;20405;-77
2023/03/06 09:10:22;;;;;;;39.35;19.13;;;;;;;6.00;51.82;94750.84;5013034;28;20055;-78
2023/03/06 09:12:48;;;;;;;32.90;17.48;;;;;;;6.06;50.88;94747.19;5009533;28;20037;-78
2023/03/06 09:15:14;;;;;;;33.97;16.98;;;;;;;6.23;51.34;94749.66;5015071;28;20052;-79
2023/03/06 09:17:39;;;;;;;38.35;17.33;;;;;;;6.31;50.75;94756.28;5000583;28;20286;-78
2023/03/06 09:20:06;;;;;;;40.85;19.15;;;;;;;5.74;50.54;94664.88;5034317;28;20037;-78
2023/03/06 09:22:32;;;;;;;32.47;16.50;;;;;;;6.08;50.34;94696.94;5013038;28;20481;-78
2023/03/06 09:24:58;;;;;;;35.08;17.90;;;;;;;6.64;50.47;94750.59;5011061;28;20495;-79
2023/03/06 09:27:24;;;;;;;39.17;19.98;;;;;;;6.69;51.06;94752.47;5012452;28;20095;-77
2023/03/06 09:29:49;;;;;;;39.15;18.00;;;;;;;6.36;50.01;94690.44;5012289;28;20403;-78
2023/03/06 09:32:15;;;;;;;43.78;18.73;;;;;;;6.75;49.87;94756.69;5015719;28;20063;-78
2023/03/06 09:34:40;;;;;;;34.20;18.77;;;;;;;6.74;50.64;94752.47;5012746;28;20100;-78
2023/03/06 09:37:06;;;;;;;43.38;18.00;;;;;;;6.63;49.92;94746.41;5008223;28;20038;-78
2023/03/06 09:39:32;;;;;;;37.55;19.70;;;;;;;6.51;50.13;94709.72;5008562;28;20198;-82
2023/03/06 09:41:59;;;;;;;36.33;18.88;;;;;;;6.72;50.24;94744.81;5010601;28;20118;-82
2023/03/06 09:44:28;;;;;;;37.17;17.98;;;;;;;6.17;50.72;94643.53;5009553;28;20642;-80
2023/03/06 09:47:33;;;;;;;42.45;19.65;;;;;;;6.66;49.10;94693.16;5011812;28;20029;-80
2023/03/06 09:50:03;;;;;;;41.67;19.58;;;;;;;6.57;49.47;94673.63;5002618;28;20058;-80
2023/03/06 09:52:32;;;;;;;44.85;18.70;;;;;;;7.12;49.41;94730.94;5028069;28;20037;-80
2023/03/06 09:55:01;;;;;;;40.38;17.40;;;;;;;7.22;48.94;94730.97;5017117;28;20033;-81
2023/03/06 09:57:44;;;;;;;37.15;17.90;;;;;;;7.27;48.85;94724.88;5020657;28;20037;-85
2023/03/06 10:00:25;;;;;;;33.15;17.15;;;;;;;6.78;49.28;94642.88;5002829;28;20049;-82
2023/03/06 10:03:20;;;;;;;36.05;19.42;;;;;;;7.22;48.55;94686.13;5015953;28;20039;-81
2023/03/06 10:06:10;;;;;;;41.40;17.35;;;;;;;7.58;48.36;94715.91;5013987;28;20129;-81
2023/03/06 10:08:50;;;;;;;32.78;16.85;;;;;;;7.38;48.71;94692.19;5014480;28;20038;-81
2023/03/06 10:11:25;;;;;;;33.85;17.13;;;;;;;7.62;49.07;94681.88;5039825;28;20052;-84
2023/03/06 10:13:57;;;;;;;32.85;16.52;;;;;;;8.18;47.08;94587.41;5027295;28;20103;-83
2023/03/06 10:16:31;;;;;;;37.85;18.13;;;;;;;9.67;44.37;94635.22;5022221;28;20037;-83
2023/03/06 10:19:09;;;;;;;37.08;17.30;;;;;;;11.95;41.59;94686.97;5016869;28;20479;-82
2023/03/06 10:21:49;;;;;;;30.35;16.90;;;;;;;12.79;38.46;94714.06;5019088;28;20034;-85
2023/03/06 10:24:31;;;;;;;29.30;16.57;;;;;;;14.31;36.51;94707.81;5037492;28;20104;-83
2023/03/06 10:27:01;;;;;;;35.00;16.35;;;;;;;14.88;35.05;94691.81;5013768;28;20044;-82
2023/03/06 10:29:29;;;;;;;29.55;15.98;;;;;;;15.91;33.98;94694.50;5014740;28;20126;-80
2023/03/06 10:32:08;;;;;;;32.28;16.55;;;;;;;16.38;32.74;94655.16;5035421;28;20045;-81
2023/03/06 10:34:37;;;;;;;33.40;15.82;;;;;;;16.15;31.59;94621.75;5006152;28;20067;-80
2023/03/06 10:37:18;;;;;;;30.08;16.30;;;;;;;16.58;31.94;94680.41;5009301;28;20068;-80
2023/03/06 10:39:43;;;;;;;31.85;15.52;;;;;;;15.70;32.31;94642.81;5011386;28;20051;-81
2023/03/06 10:42:09;;;;;;;40.97;17.10;;;;;;;15.62;31.77;94646.28;5015808;28;20439;-80
2023/03/06 10:44:34;;;;;;;31.83;16.75;;;;;;;15.31;32.01;94603.72;5017894;28;20037;-80
2023/03/06 10:47:30;;;;;;;33.40;15.57;;;;;;;15.97;31.95;94681.75;5017084;28;20409;-81
2023/03/06 10:50:01;;;;;;;29.88;15.27;;;;;;;15.81;32.47;94674.22;5017183;28;20037;-86
2023/03/06 10:52:31;;;;;;;30.70;15.70;;;;;;;15.48;32.20;94665.16;5025710;28;20037;-83
2023/03/06 10:55:31;;;;;;;29.95;15.60;;;;;;;15.07;32.89;94665.63;5019253;28;20115;-83
2023/03/06 10:57:57;;;;;;;28.58;15.25;;;;;;;14.74;34.19;94669.81;5000883;28;20610;-84
2023/03/06 11:00:31;;;;;;;27.23;15.40;;;;;;;14.04;34.66;94617.31;5031211;28;20148;-82
2023/03/06 11:03:18;;;;;;;27.08;14.88;;;;;;;14.10;35.32;94656.91;5017564;28;20176;-84
2023/03/06 11:06:08;;;;;;;27.20;15.23;;;;;;;14.00;34.94;94643.03;5013581;28;20448;-83
2023/03/06 11:08:34;;;;;;;34.85;15.52;;;;;;;14.04;35.08;94649.31;5015056;28;20033;-84
2023/03/06 11:11:02;;;;;;;30.58;16.25;;;;;;;13.71;35.42;94640.88;5012990;28;20044;-82
2023/03/06 11:13:31;;;;;;;33.33;16.33;;;;;;;13.72;35.43;94635.25;5014870;28;20037;-80
2023/03/06 11:16:02;;;;;;;32.38;15.35;;;;;;;13.25;35.65;94626.03;5010786;28;20519;-81
2023/03/06 11:18:34;;;;;;;31.33;15.60;;;;;;;13.25;36.02;94638.53;5023628;28;20256;-79
2023/03/06 11:21:20;;;;;;;31.35;15.35;;;;;;;12.85;35.38;94541.78;5002884;28;21082;-82
2023/03/06 11:23:46;;;;;;;35.45;15.60;;;;;;;12.04;36.37;94517.00;5011600;28;20041;-80
2023/03/06 11:26:14;;;;;;;27.95;14.20;;;;;;;13.00;36.42;94634.56;4999529;28;20036;-81